createdAt,value
2018-04-08T00:00:44.298Z,100338.92
2018-04-08T00:03:12.650Z,100342.92
2018-04-08T00:05:40.983Z,100334.91
2018-04-08T00:08:09.333Z,100338.19
2018-04-08T00:10:37.666Z,100332.19
2018-04-08T00:13:06.020Z,100329.77
2018-04-08T00:15:34.349Z,100335.17
2018-04-08T00:18:02.714Z,100336.80
2018-04-08T00:20:31.080Z,100330.63
2018-04-08T00:22:59.410Z,100330.61
2018-04-08T00:25:27.739Z,100329.79
2018-04-08T00:27:56.099Z,100327.17
2018-04-08T00:30:24.430Z,100327.22
2018-04-08T00:32:52.781Z,100330.95
2018-04-08T00:35:21.233Z,100321.17
2018-04-08T00:37:49.586Z,100329.23
2018-04-08T00:40:17.913Z,100322.01
2018-04-08T00:42:46.267Z,100321.56
2018-04-08T00:45:14.602Z,100324.51
2018-04-08T00:47:42.961Z,100317.09
2018-04-08T00:50:11.289Z,100319.22
2018-04-08T00:52:39.663Z,100316.73
2018-04-08T00:55:07.986Z,100315.63
2018-04-08T00:57:36.062Z,100314.52
2018-04-08T01:00:04.105Z,100314.19
2018-04-08T01:02:32.180Z,100311.87
2018-04-08T01:05:00.225Z,100310.59
2018-04-08T01:07:28.298Z,100313.80
2018-04-08T01:09:56.333Z,100303.42
2018-04-08T01:12:24.397Z,100300.97
2018-04-08T01:14:52.473Z,100302.49
2018-04-08T01:17:20.537Z,100300.56
2018-04-08T01:19:48.883Z,100301.54
2018-04-08T01:22:17.206Z,100303.36
2018-04-08T01:24:45.553Z,100302.88
2018-04-08T01:27:13.886Z,100304.22
2018-04-08T01:29:42.242Z,100299.28
2018-04-08T01:32:10.582Z,100296.93
2018-04-08T01:34:38.946Z,100297.89
2018-04-08T01:37:07.286Z,100294.78
2018-04-08T01:39:35.638Z,100292.56
2018-04-08T01:42:03.966Z,100288.76
2018-04-08T01:44:32.318Z,100286.55
2018-04-08T01:47:00.647Z,100288.27
2018-04-08T01:49:28.997Z,100281.30
2018-04-08T01:51:57.345Z,100277.39
2018-04-08T01:54:25.706Z,100282.08
2018-04-08T01:56:54.034Z,100283.83
2018-04-08T01:59:22.385Z,100275.97
2018-04-08T02:01:50.725Z,100278.72
2018-04-08T02:04:19.073Z,100281.89
2018-04-08T02:06:47.406Z,100281.80
2018-04-08T02:09:15.757Z,100284.85
2018-04-08T02:11:44.090Z,100281.70
2018-04-08T02:14:12.447Z,100277.53
2018-04-08T02:16:40.777Z,100281.05
2018-04-08T02:19:09.137Z,100274.48
2018-04-08T02:21:37.474Z,100281.89
2018-04-08T02:24:05.830Z,100279.02
2018-04-08T02:26:34.165Z,100279.90
2018-04-08T02:29:02.526Z,100273.69
2018-04-08T02:31:30.855Z,100275.41
2018-04-08T02:33:59.225Z,100274.87
2018-04-08T02:36:27.550Z,100276.23
2018-04-08T02:38:55.910Z,100273.48
2018-04-08T02:41:24.250Z,100272.84
2018-04-08T02:43:52.610Z,100274.81
2018-04-08T02:46:20.951Z,100273.19
2018-04-08T02:48:49.315Z,100273.30
2018-04-08T02:51:17.654Z,100270.78
2018-04-08T02:53:46.021Z,100271.97
2018-04-08T02:56:14.350Z,100269.06
2018-04-08T02:58:42.717Z,100270.10
2018-04-08T03:01:11.056Z,100273.42
2018-04-08T03:03:39.410Z,100272.98
2018-04-08T03:06:07.752Z,100268.28
2018-04-08T03:08:36.122Z,100267.84
2018-04-08T03:11:04.470Z,100267.28
2018-04-08T03:13:32.827Z,100264.09
2018-04-08T03:16:01.194Z,100266.27
2018-04-08T03:18:29.531Z,100262.54
2018-04-08T03:20:57.894Z,100265.07
2018-04-08T03:23:26.233Z,100260.03
2018-04-08T03:25:54.586Z,100264.77
2018-04-08T03:28:22.930Z,100263.05
2018-04-08T03:30:51.295Z,100265.39
2018-04-08T03:33:19.634Z,100261.81
2018-04-08T03:35:47.996Z,100262.94
2018-04-08T03:38:16.326Z,100259.48
2018-04-08T03:40:44.689Z,100260.02
2018-04-08T03:43:13.032Z,100255.23
2018-04-08T03:45:41.386Z,100254.35
2018-04-08T03:48:09.725Z,100250.16
2018-04-08T03:50:38.081Z,100252.63
2018-04-08T03:53:06.414Z,100251.17
2018-04-08T03:55:34.779Z,100251.67
2018-04-08T03:58:03.118Z,100250.09
2018-04-08T04:00:31.470Z,100251.48
2018-04-08T04:02:59.814Z,100246.12
2018-04-08T04:05:28.173Z,100244.69
2018-04-08T04:07:56.509Z,100251.28
2018-04-08T04:10:24.866Z,100254.84
2018-04-08T04:12:53.207Z,100252.78
2018-04-08T04:15:21.560Z,100252.45
2018-04-08T04:17:49.893Z,100255.05
2018-04-08T04:20:30.141Z,100255.38
2018-04-08T04:23:10.362Z,100248.20
2018-04-08T04:25:47.333Z,100250.84
2018-04-08T04:28:15.662Z,100244.98
2018-04-08T04:30:44.022Z,100242.43
2018-04-08T04:33:12.354Z,100246.80
2018-04-08T04:35:40.717Z,100246.38
2018-04-08T04:38:09.053Z,100245.16
2018-04-08T04:40:37.409Z,100250.13
2018-04-08T04:43:05.741Z,100239.86
2018-04-08T04:45:34.135Z,100243.98
2018-04-08T04:48:02.430Z,100238.39
2018-04-08T04:50:30.785Z,100240.91
2018-04-08T04:52:59.127Z,100239.36
2018-04-08T04:55:27.482Z,100243.40
2018-04-08T04:57:55.825Z,100242.11
2018-04-08T05:00:24.184Z,100241.41
2018-04-08T05:02:52.523Z,100230.80
2018-04-08T05:05:20.880Z,100232.61
2018-04-08T05:07:49.210Z,100232.41
2018-04-08T05:10:17.562Z,100241.72
2018-04-08T05:12:45.897Z,100243.42
2018-04-08T05:15:14.258Z,100245.06
2018-04-08T05:17:42.591Z,100245.78
2018-04-08T05:20:10.948Z,100245.69
2018-04-08T05:22:39.286Z,100244.41
2018-04-08T05:25:07.646Z,100250.13
2018-04-08T05:27:35.986Z,100245.18
2018-04-08T05:30:04.350Z,100247.16
2018-04-08T05:32:32.686Z,100249.03
2018-04-08T05:35:01.059Z,100246.47
2018-04-08T05:37:29.382Z,100246.63
2018-04-08T05:39:57.751Z,100239.96
2018-04-08T05:42:26.094Z,100243.73
2018-04-08T05:44:54.438Z,100246.17
2018-04-08T05:47:22.806Z,100237.52
2018-04-08T05:49:51.138Z,100241.77
2018-04-08T05:52:19.492Z,100242.30
2018-04-08T05:54:47.826Z,100239.80
2018-04-08T05:57:16.187Z,100232.00
2018-04-08T05:59:44.522Z,100230.07
2018-04-08T06:02:12.878Z,100230.44
2018-04-08T06:04:41.219Z,100229.47
2018-04-08T06:07:09.573Z,100231.53
2018-04-08T06:09:37.902Z,100233.15
2018-04-08T06:12:06.246Z,100226.13
2018-04-08T06:14:34.574Z,100233.49
2018-04-08T06:17:02.929Z,100233.41
2018-04-08T06:19:31.253Z,100232.69
2018-04-08T06:21:59.606Z,100234.41
2018-04-08T06:24:27.944Z,100237.66
2018-04-08T06:26:56.290Z,100229.81
2018-04-08T06:29:24.618Z,100233.23
2018-04-08T06:31:52.965Z,100232.84
2018-04-08T06:34:21.294Z,100225.74
2018-04-08T06:36:49.642Z,100230.18
2018-04-08T06:39:17.978Z,100228.73
2018-04-08T06:41:46.325Z,100228.70
2018-04-08T06:44:14.653Z,100229.00
2018-04-08T06:46:43.003Z,100226.17
2018-04-08T06:49:11.338Z,100229.84
2018-04-08T06:51:39.689Z,100229.28
2018-04-08T06:54:08.278Z,100226.89
2018-04-08T06:56:36.626Z,100230.40
2018-04-08T06:59:04.958Z,100232.42
2018-04-08T07:01:33.311Z,100229.20
2018-04-08T07:04:01.642Z,100232.90
2018-04-08T07:06:29.988Z,100222.97
2018-04-08T07:08:58.318Z,100226.84
2018-04-08T07:11:26.665Z,100226.31
2018-04-08T07:13:54.999Z,100222.23
2018-04-08T07:16:23.350Z,100221.08
2018-04-08T07:18:51.676Z,100228.08
2018-04-08T07:21:20.026Z,100220.02
2018-04-08T07:23:48.353Z,100217.53
2018-04-08T07:26:16.827Z,100214.48
2018-04-08T07:28:45.138Z,100219.29
2018-04-08T07:31:13.483Z,100219.62
2018-04-08T07:33:41.809Z,100219.20
2018-04-08T07:36:10.167Z,100216.31
2018-04-08T07:38:38.486Z,100208.64
2018-04-08T07:41:06.835Z,100219.42
2018-04-08T07:43:35.183Z,100219.19
2018-04-08T07:46:03.510Z,100219.97
2018-04-08T07:48:31.854Z,100225.99
2018-04-08T07:51:00.177Z,100215.30
2018-04-08T07:53:28.522Z,100213.89
2018-04-08T07:55:56.846Z,100221.94
2018-04-08T07:58:25.194Z,100215.56
2018-04-08T08:00:53.521Z,100218.77
2018-04-08T08:03:21.878Z,100215.83
2018-04-08T08:05:50.214Z,100220.93
2018-04-08T08:08:18.552Z,100215.43
2018-04-08T08:10:46.883Z,100216.42
2018-04-08T08:13:15.233Z,100218.94
2018-04-08T08:15:43.561Z,100218.50
2018-04-08T08:18:11.915Z,100213.02
2018-04-08T08:20:40.231Z,100213.02
2018-04-08T08:23:08.591Z,100215.00
2018-04-08T08:25:36.919Z,100219.13
2018-04-08T08:28:05.274Z,100219.80
2018-04-08T08:30:33.602Z,100222.87
2018-04-08T08:33:01.955Z,100225.88
2018-04-08T08:35:30.287Z,100221.66
2018-04-08T08:37:58.645Z,100229.00
2018-04-08T08:40:26.970Z,100225.65
2018-04-08T08:42:55.335Z,100223.82
2018-04-08T08:45:23.712Z,100222.16
2018-04-08T08:47:52.058Z,100218.66
2018-04-08T08:50:20.394Z,100215.91
2018-04-08T08:52:48.753Z,100218.47
2018-04-08T08:55:17.502Z,100210.50
2018-04-08T08:57:45.865Z,100216.08
2018-04-08T09:00:14.203Z,100207.95
2018-04-08T09:02:42.546Z,100214.63
2018-04-08T09:05:10.882Z,100206.83
2018-04-08T09:07:39.230Z,100214.39
2018-04-08T09:10:07.568Z,100211.02
2018-04-08T09:12:35.930Z,100205.89
2018-04-08T09:15:04.274Z,100209.30
2018-04-08T09:17:32.672Z,100207.13
2018-04-08T09:20:21.811Z,100207.56
2018-04-08T09:26:07.708Z,100214.33
2018-04-08T09:28:36.067Z,100207.83
2018-04-08T09:31:04.398Z,100214.95
2018-04-08T09:33:32.754Z,100212.70
2018-04-08T09:36:01.090Z,100211.96
2018-04-08T09:38:29.446Z,100215.73
2018-04-08T09:40:58.130Z,100215.03
2018-04-08T09:43:26.490Z,100211.50
2018-04-08T09:45:54.827Z,100211.96
2018-04-08T09:48:23.194Z,100208.86
2018-04-08T09:50:51.533Z,100203.39
2018-04-08T09:53:19.898Z,100198.03
2018-04-08T09:55:48.231Z,100199.11
2018-04-08T09:58:16.585Z,100194.93
2018-04-08T10:03:52.205Z,100187.72
2018-04-08T10:06:21.454Z,100191.03
2018-04-08T10:08:49.811Z,100186.27
2018-04-08T10:11:18.146Z,100186.03
2018-04-08T10:13:46.505Z,100183.45
2018-04-08T10:16:14.833Z,100183.69
2018-04-08T10:18:43.189Z,100180.88
2018-04-08T10:21:11.530Z,100180.56
2018-04-08T10:23:39.895Z,100180.78
2018-04-08T10:26:08.234Z,100184.20
2018-04-08T10:28:36.582Z,100182.76
2018-04-08T10:31:04.923Z,100183.04
2018-04-08T10:33:33.292Z,100183.17
2018-04-08T10:36:01.626Z,100185.98
2018-04-08T10:38:29.985Z,100183.84
2018-04-08T10:40:58.324Z,100179.47
2018-04-08T10:43:26.674Z,100178.63
2018-04-08T10:45:55.574Z,100186.54
2018-04-08T10:48:23.941Z,100174.48
2018-04-08T10:50:52.280Z,100175.33
2018-04-08T10:53:20.627Z,100177.94
2018-04-08T10:55:48.958Z,100170.77
2018-04-08T10:58:17.321Z,100167.66
2018-04-08T11:00:45.657Z,100167.84
2018-04-08T11:03:14.014Z,100165.21
2018-04-08T11:05:42.781Z,100162.58
2018-04-08T11:08:11.138Z,100164.30
2018-04-08T11:10:39.473Z,100162.05
2018-04-08T11:13:07.838Z,100168.94
2018-04-08T11:15:36.188Z,100165.67
2018-04-08T11:18:04.518Z,100165.38
2018-04-08T11:20:32.878Z,100162.95
2018-04-08T11:23:01.218Z,100156.83
2018-04-08T11:25:30.339Z,100158.86
2018-04-08T11:27:58.678Z,100162.03
2018-04-08T11:30:27.094Z,100150.77
2018-04-08T11:32:55.456Z,100148.86
2018-04-08T11:35:23.794Z,100141.61
2018-04-08T11:37:52.132Z,100140.01
2018-04-08T11:40:20.494Z,100136.77
2018-04-08T11:42:48.831Z,100135.05
2018-04-08T11:45:17.182Z,100133.16
2018-04-08T11:47:45.514Z,100135.23
2018-04-08T11:50:13.877Z,100138.48
2018-04-08T11:52:42.210Z,100133.59
2018-04-08T11:55:10.563Z,100129.73
2018-04-08T11:57:38.906Z,100133.23
2018-04-08T12:00:07.262Z,100125.14
2018-04-08T12:02:35.599Z,100125.58
2018-04-08T12:05:04.783Z,100120.23
2018-04-08T12:07:33.121Z,100117.52
2018-04-08T12:10:01.482Z,100112.67
2018-04-08T12:12:29.818Z,100110.16
2018-04-08T12:14:58.188Z,100110.31
2018-04-08T12:17:26.522Z,100105.59
2018-04-08T12:19:54.873Z,100103.45
2018-04-08T12:22:23.210Z,100104.97
2018-04-08T12:24:52.314Z,100106.80
2018-04-08T12:27:21.614Z,100100.48
2018-04-08T12:29:49.978Z,100094.67
2018-04-08T12:32:18.309Z,100097.50
2018-04-08T12:34:46.662Z,100099.49
2018-04-08T12:37:15.005Z,100095.52
2018-04-08T12:39:43.359Z,100100.23
2018-04-08T12:42:11.698Z,100103.30
2018-04-08T12:44:40.070Z,100100.55
2018-04-08T12:47:08.412Z,100108.70
2018-04-08T12:49:36.769Z,100097.08
2018-04-08T12:52:05.134Z,100089.39
2018-04-08T12:54:33.473Z,100092.00
2018-04-08T12:57:01.813Z,100082.48
2018-04-08T12:59:30.169Z,100082.88
2018-04-08T13:01:58.510Z,100084.49
2018-04-08T13:04:26.873Z,100084.97
2018-04-08T13:06:56.159Z,100074.33
2018-04-08T13:09:24.510Z,100074.21
2018-04-08T13:11:52.851Z,100070.55
2018-04-08T13:14:21.210Z,100070.49
2018-04-08T13:16:49.545Z,100069.80
2018-04-08T13:19:17.923Z,100064.34
2018-04-08T13:21:46.278Z,100057.28
2018-04-08T13:24:15.281Z,100056.75
2018-04-08T13:26:43.640Z,100054.13
2018-04-08T13:29:11.991Z,100051.81
2018-04-08T13:31:40.354Z,100053.47
2018-04-08T13:34:08.677Z,100049.41
2018-04-08T13:36:37.030Z,100045.08
2018-04-08T13:39:06.318Z,100042.84
2018-04-08T13:41:34.678Z,100039.11
2018-04-08T13:44:03.006Z,100037.88
2018-04-08T13:46:31.370Z,100038.70
2018-04-08T13:48:59.706Z,100036.58
2018-04-08T13:51:28.063Z,100037.96
2018-04-08T13:53:56.404Z,100035.82
2018-04-08T13:56:24.752Z,100029.53
2018-04-08T13:58:53.095Z,100028.03
2018-04-08T14:01:21.461Z,100028.50
2018-04-08T14:03:49.786Z,100025.89
2018-04-08T14:06:18.150Z,100027.47
2018-04-08T14:08:46.474Z,100026.09
2018-04-08T14:11:14.839Z,100025.41
2018-04-08T14:13:43.174Z,100022.10
2018-04-08T14:16:11.530Z,100017.34
2018-04-08T14:18:39.866Z,100019.82
2018-04-08T14:21:08.235Z,100015.48
2018-04-08T14:23:36.582Z,100013.83
2018-04-08T14:26:04.938Z,100016.09
2018-04-08T14:28:33.274Z,100005.95
2018-04-08T14:31:01.627Z,100012.23
2018-04-08T14:33:29.974Z,100009.33
2018-04-08T14:35:58.317Z,99996.86
2018-04-08T14:38:26.709Z,100003.01
2018-04-08T14:40:55.103Z,100000.30
2018-04-08T14:43:24.289Z,100000.66
2018-04-08T14:45:52.646Z,100000.84
2018-04-08T14:48:20.981Z,99996.22
2018-04-08T14:50:49.334Z,99997.67
2018-04-08T14:53:17.675Z,99997.16
2018-04-08T14:55:46.033Z,100000.11
2018-04-08T14:58:14.357Z,99993.75
2018-04-08T15:00:42.717Z,99995.21
2018-04-08T15:03:11.046Z,99993.28
2018-04-08T15:05:39.406Z,99994.58
2018-04-08T15:08:07.737Z,99987.05
2018-04-08T15:10:36.127Z,99991.95
2018-04-08T15:13:04.414Z,99992.53
2018-04-08T15:15:32.761Z,99988.38
2018-04-08T15:18:01.094Z,99981.77
2018-04-08T15:20:29.443Z,99980.50
2018-04-08T15:22:57.786Z,99981.55
2018-04-08T15:25:26.120Z,99978.18
2018-04-08T15:27:54.468Z,99971.77
2018-04-08T15:30:22.817Z,99973.61
2018-04-08T15:32:51.211Z,99971.21
2018-04-08T15:35:19.526Z,99973.38
2018-04-08T15:37:47.888Z,99966.20
2018-04-08T15:40:16.946Z,99965.15
2018-04-08T15:42:45.298Z,99967.91
2018-04-08T15:45:13.631Z,99962.25
2018-04-08T15:47:42.004Z,99967.34
2018-04-08T15:50:10.330Z,99968.86
2018-04-08T15:52:38.683Z,99968.92
2018-04-08T15:55:07.015Z,99972.35
2018-04-08T15:57:35.375Z,99967.84
2018-04-08T16:00:04.690Z,99964.69
2018-04-08T16:02:33.039Z,99962.76
2018-04-08T16:05:01.374Z,99961.58
2018-04-08T16:07:29.738Z,99970.17
2018-04-08T16:09:58.074Z,99973.33
2018-04-08T16:12:26.425Z,99970.92
2018-04-08T16:14:54.773Z,99966.91
2018-04-08T16:17:23.106Z,99962.13
2018-04-08T16:19:52.409Z,99964.06
2018-04-08T16:22:20.758Z,99964.47
2018-04-08T16:24:49.089Z,99959.41
2018-04-08T16:27:17.434Z,99959.82
2018-04-08T16:29:45.767Z,99961.18
2018-04-08T16:32:14.114Z,99959.94
2018-04-08T16:34:42.441Z,99961.19
2018-04-08T16:37:10.794Z,99961.34
2018-04-08T16:39:39.229Z,99958.06
2018-04-08T16:42:07.574Z,99954.34
2018-04-08T16:44:35.911Z,99960.34
2018-04-08T16:47:04.266Z,99964.79
2018-04-08T16:49:32.589Z,99965.98
2018-04-08T16:52:00.946Z,99966.61
2018-04-08T16:54:29.270Z,99969.25
2018-04-08T16:56:57.635Z,99973.78
2018-04-08T16:59:26.854Z,99968.38
2018-04-08T17:01:55.209Z,99971.45
2018-04-08T17:04:23.548Z,99976.66
2018-04-08T17:06:51.881Z,99977.98
2018-04-08T17:09:20.225Z,99977.50
2018-04-08T17:11:48.567Z,99978.56
2018-04-08T17:14:16.890Z,99978.20
2018-04-08T17:16:45.250Z,99978.90
2018-04-08T17:19:13.574Z,99977.09
2018-04-08T17:21:41.943Z,99978.92
2018-04-08T17:24:10.269Z,99980.44
2018-04-08T17:26:38.607Z,99980.53
2018-04-08T17:29:06.958Z,99976.15
2018-04-08T17:31:35.293Z,99980.03
2018-04-08T17:34:03.647Z,99981.45
2018-04-08T17:36:31.986Z,99976.30
2018-04-08T17:39:00.338Z,99989.97
2018-04-08T17:41:28.670Z,99997.38
2018-04-08T17:43:57.013Z,99995.89
2018-04-08T17:46:26.250Z,99990.91
2018-04-08T17:48:54.602Z,99993.45
2018-04-08T17:51:22.930Z,99999.19
2018-04-08T17:53:51.292Z,100000.30
2018-04-08T17:56:19.626Z,100003.36
2018-04-08T17:58:47.985Z,100005.78
2018-04-08T18:01:16.327Z,100011.20
2018-04-08T18:03:44.685Z,100007.10
2018-04-08T18:06:13.022Z,100012.68
2018-04-08T18:08:41.377Z,100022.56
2018-04-08T18:11:09.724Z,100018.94
2018-04-08T18:13:38.081Z,100016.47
2018-04-08T18:16:06.427Z,100021.05
2018-04-08T18:18:34.782Z,100017.13
2018-04-08T18:21:03.122Z,100022.42
2018-04-08T18:23:31.479Z,100028.34
2018-04-08T18:25:59.814Z,100022.77
2018-04-08T18:28:28.170Z,100021.61
2018-04-08T18:30:56.514Z,100029.61
2018-04-08T18:33:24.874Z,100029.05
2018-04-08T18:35:53.221Z,100039.45
2018-04-08T18:38:21.578Z,100032.88
2018-04-08T18:40:49.910Z,100039.72
2018-04-08T18:43:18.265Z,100037.27
2018-04-08T18:45:46.597Z,100044.91
2018-04-08T18:48:14.967Z,100043.39
2018-04-08T18:50:43.313Z,100044.40
2018-04-08T18:53:11.662Z,100049.81
2018-04-08T18:55:39.994Z,100051.45
2018-04-08T18:58:08.360Z,100051.42
2018-04-08T19:00:36.700Z,100052.21
2018-04-08T19:03:05.066Z,100057.91
2018-04-08T19:05:33.403Z,100056.31
2018-04-08T19:08:01.764Z,100059.17
2018-04-08T19:10:30.107Z,100054.27
2018-04-08T19:12:58.479Z,100059.62
2018-04-08T19:15:26.999Z,100059.61
2018-04-08T19:18:00.994Z,100056.89
2018-04-08T19:20:29.587Z,100054.57
2018-04-08T19:22:58.074Z,100060.79
2018-04-08T19:25:26.406Z,100064.30
2018-04-08T19:27:56.366Z,100056.31
2018-04-08T19:30:24.710Z,100061.65
2018-04-08T19:32:53.046Z,100063.28
2018-04-08T19:35:21.410Z,100067.09
2018-04-08T19:37:49.749Z,100064.53
2018-04-08T19:40:18.262Z,100067.22
2018-04-08T19:42:46.606Z,100061.09
2018-04-08T19:45:15.870Z,100058.48
2018-04-08T19:47:44.220Z,100065.73
2018-04-08T19:50:12.579Z,100066.25
2018-04-08T19:52:40.987Z,100066.38
2018-04-08T19:55:09.357Z,100064.76
2018-04-08T19:57:37.686Z,100062.34
2018-04-08T20:00:06.042Z,100055.50
2018-04-08T20:02:34.387Z,100060.84
2018-04-08T20:05:02.751Z,100053.91
2018-04-08T20:07:31.091Z,100054.95
2018-04-08T20:09:59.446Z,100050.19
2018-04-08T20:12:27.792Z,100050.09
2018-04-08T20:14:56.161Z,100054.21
2018-04-08T20:17:24.497Z,100054.33
2018-04-08T20:19:52.860Z,100053.77
2018-04-08T20:22:21.208Z,100055.53
2018-04-08T20:24:49.561Z,100050.88
2018-04-08T20:27:17.890Z,100048.30
2018-04-08T20:29:46.252Z,100055.01
2018-04-08T20:32:14.602Z,100057.06
2018-04-08T20:34:42.937Z,100056.30
2018-04-08T20:37:11.283Z,100056.49
2018-04-08T20:39:40.455Z,100051.73
2018-04-08T20:42:08.795Z,100049.75
2018-04-08T20:44:37.150Z,100045.40
2018-04-08T20:47:05.490Z,100042.31
2018-04-08T20:49:33.850Z,100050.01
2018-04-08T20:52:02.191Z,100052.17
2018-04-08T20:54:30.547Z,100052.40
2018-04-08T20:56:58.882Z,100053.42
2018-04-08T20:59:27.241Z,100049.98
2018-04-08T21:01:55.582Z,100048.56
2018-04-08T21:04:23.947Z,100054.20
2018-04-08T21:06:52.282Z,100046.19
2018-04-08T21:09:20.643Z,100048.92
2018-04-08T21:11:48.974Z,100052.00
2018-04-08T21:14:17.335Z,100050.72
2018-04-08T21:16:45.670Z,100052.52
2018-04-08T21:19:14.030Z,100049.20
2018-04-08T21:21:42.361Z,100050.70
2018-04-08T21:24:10.706Z,100050.02
2018-04-08T21:26:39.042Z,100047.53
2018-04-08T21:29:07.390Z,100050.33
2018-04-08T21:31:35.724Z,100047.30
2018-04-08T21:34:04.050Z,100043.91
2018-04-08T21:36:32.409Z,100043.17
2018-04-08T21:39:00.742Z,100038.17
2018-04-08T21:41:29.095Z,100036.89
2018-04-08T21:43:57.426Z,100043.26
2018-04-08T21:46:25.774Z,100041.75
2018-04-08T21:48:54.110Z,100041.64
2018-04-08T21:51:22.457Z,100045.03
2018-04-08T21:53:50.829Z,100041.50
2018-04-08T21:56:19.142Z,100042.69
2018-04-08T21:58:47.481Z,100042.52
2018-04-08T22:01:15.830Z,100040.31
2018-04-08T22:03:44.157Z,100045.84
2018-04-08T22:06:12.517Z,100044.36
2018-04-08T22:08:40.842Z,100043.70
2018-04-08T22:11:09.195Z,100047.62
2018-04-08T22:13:37.530Z,100051.22
2018-04-08T22:16:05.878Z,100049.02
2018-04-08T22:18:34.209Z,100052.27
2018-04-08T22:21:02.570Z,100049.53
2018-04-08T22:23:30.901Z,100048.42
2018-04-08T22:25:59.253Z,100050.06
2018-04-08T22:28:27.587Z,100051.36
2018-04-08T22:30:55.938Z,100048.60
2018-04-08T22:33:24.265Z,100039.52
2018-04-08T22:35:52.617Z,100039.30
2018-04-08T22:38:20.946Z,100045.66
2018-04-08T22:40:49.338Z,100039.26
2018-04-08T22:43:17.670Z,100042.09
2018-04-08T22:45:46.018Z,100041.39
2018-04-08T22:48:14.346Z,100046.34
2018-04-08T22:50:42.700Z,100046.89
2018-04-08T22:53:11.034Z,100046.12
2018-04-08T22:55:39.386Z,100051.03
2018-04-08T22:58:07.719Z,100050.78
2018-04-08T23:00:36.070Z,100051.21
2018-04-08T23:03:04.402Z,100048.05
2018-04-08T23:05:32.758Z,100042.94
2018-04-08T23:08:01.101Z,100043.14
2018-04-08T23:10:29.450Z,100044.08
2018-04-08T23:12:57.787Z,100039.11
2018-04-08T23:15:26.138Z,100040.30
2018-04-08T23:17:54.463Z,100041.63
2018-04-08T23:20:22.814Z,100036.69
2018-04-08T23:22:51.156Z,100039.27
2018-04-08T23:25:19.507Z,100036.20
2018-04-08T23:27:47.846Z,100044.08
2018-04-08T23:30:16.195Z,100042.66
2018-04-08T23:32:44.529Z,100045.91
2018-04-08T23:35:12.862Z,100047.04
2018-04-08T23:37:41.214Z,100046.00
2018-04-08T23:40:09.546Z,100046.91
2018-04-08T23:42:37.893Z,100050.19
2018-04-08T23:45:06.244Z,100047.15
2018-04-08T23:47:34.586Z,100045.03
2018-04-08T23:50:02.918Z,100044.22
2018-04-08T23:52:31.274Z,100043.86
2018-04-08T23:54:59.602Z,100040.95
2018-04-08T23:57:27.959Z,100039.45
2018-04-08T23:59:56.285Z,100037.30
